createdAt,value
2019-05-21T00:00:33.047Z,0.00
2019-05-21T00:01:33.044Z,0.00
2019-05-21T00:02:33.039Z,0.00
2019-05-21T00:03:33.041Z,0.00
2019-05-21T00:04:33.037Z,0.00
2019-05-21T00:05:33.038Z,0.00
2019-05-21T00:06:33.035Z,0.00
2019-05-21T00:07:33.031Z,0.00
2019-05-21T00:08:33.029Z,0.00
2019-05-21T00:09:33.028Z,0.00
2019-05-21T00:10:33.025Z,0.00
2019-05-21T00:11:33.026Z,0.00
2019-05-21T00:12:33.022Z,0.00
2019-05-21T00:13:33.021Z,0.00
2019-05-21T00:14:33.018Z,0.00
2019-05-21T00:15:33.016Z,0.00
2019-05-21T00:16:33.014Z,0.00
2019-05-21T00:17:33.015Z,0.00
2019-05-21T00:18:33.018Z,0.00
2019-05-21T00:19:33.009Z,0.00
2019-05-21T00:20:33.008Z,0.00
2019-05-21T00:21:33.005Z,0.00
2019-05-21T00:22:33.013Z,0.00
2019-05-21T00:23:33.001Z,0.00
2019-05-21T00:24:33.011Z,0.00
2019-05-21T00:25:32.999Z,0.00
2019-05-21T00:26:32.998Z,0.00
2019-05-21T00:27:32.994Z,0.00
2019-05-21T00:28:32.990Z,0.00
2019-05-21T00:29:32.989Z,0.00
2019-05-21T00:30:32.990Z,0.00
2019-05-21T00:31:32.984Z,0.00
2019-05-21T00:32:32.982Z,0.00
2019-05-21T00:33:32.982Z,0.00
2019-05-21T00:34:43.432Z,0.00
2019-05-21T00:35:32.979Z,0.00
2019-05-21T00:36:32.975Z,0.00
2019-05-21T00:37:32.974Z,0.00
2019-05-21T00:38:32.971Z,0.00
2019-05-21T00:39:32.968Z,0.00
2019-05-21T00:40:32.967Z,0.00
2019-05-21T00:41:32.965Z,0.00
2019-05-21T00:42:32.963Z,0.00
2019-05-21T00:43:32.961Z,0.00
2019-05-21T00:44:32.959Z,0.00
2019-05-21T00:45:32.965Z,0.00
2019-05-21T00:46:32.954Z,0.00
2019-05-21T00:47:32.956Z,0.00
2019-05-21T00:48:32.951Z,0.00
2019-05-21T00:49:32.947Z,0.00
2019-05-21T00:50:32.952Z,0.00
2019-05-21T00:51:32.944Z,0.00
2019-05-21T00:52:32.944Z,0.00
2019-05-21T00:53:32.940Z,0.00
2019-05-21T00:54:32.937Z,0.00
2019-05-21T00:55:32.935Z,0.00
2019-05-21T00:56:32.933Z,0.00
2019-05-21T00:57:32.933Z,0.00
2019-05-21T00:58:32.928Z,0.00
2019-05-21T00:59:32.939Z,0.00
2019-05-21T01:00:32.924Z,0.00
2019-05-21T01:01:32.924Z,0.00
2019-05-21T01:02:32.922Z,0.00
2019-05-21T01:03:32.917Z,0.00
2019-05-21T01:04:32.917Z,0.00
2019-05-21T01:05:32.916Z,0.00
2019-05-21T01:06:32.911Z,0.00
2019-05-21T01:07:32.909Z,0.00
2019-05-21T01:08:32.907Z,0.00
2019-05-21T01:09:32.916Z,0.00
2019-05-21T01:10:32.903Z,0.00
2019-05-21T01:11:32.900Z,0.00
2019-05-21T01:12:32.899Z,0.00
2019-05-21T01:13:32.899Z,0.00
2019-05-21T01:14:32.898Z,0.00
2019-05-21T01:15:32.894Z,0.00
2019-05-21T01:16:32.893Z,0.00
2019-05-21T01:17:32.888Z,0.00
2019-05-21T01:18:32.887Z,0.00
2019-05-21T01:19:32.884Z,0.00
2019-05-21T01:20:32.882Z,0.00
2019-05-21T01:21:32.880Z,0.00
2019-05-21T01:22:32.891Z,0.00
2019-05-21T01:23:32.879Z,0.00
2019-05-21T01:24:32.874Z,0.00
2019-05-21T01:25:32.870Z,0.00
2019-05-21T01:26:32.868Z,0.00
2019-05-21T01:27:32.867Z,0.00
2019-05-21T01:28:32.877Z,0.00
2019-05-21T01:29:32.863Z,0.00
2019-05-21T01:30:32.859Z,0.00
2019-05-21T01:31:32.858Z,0.00
2019-05-21T01:32:32.856Z,0.00
2019-05-21T01:33:32.854Z,0.00
2019-05-21T01:34:33.025Z,0.00
2019-05-21T01:35:32.851Z,0.00
2019-05-21T01:36:32.848Z,0.00
2019-05-21T01:37:32.846Z,0.00
2019-05-21T01:38:32.843Z,0.00
2019-05-21T01:39:32.841Z,0.00
2019-05-21T01:40:32.839Z,0.00
2019-05-21T01:41:32.838Z,0.00
2019-05-21T01:42:32.834Z,0.00
2019-05-21T01:43:32.833Z,0.00
2019-05-21T01:44:32.832Z,0.00
2019-05-21T01:45:32.830Z,0.00
2019-05-21T01:46:32.826Z,0.00
2019-05-21T01:47:32.823Z,0.00
2019-05-21T01:48:32.821Z,0.00
2019-05-21T01:49:32.820Z,0.00
2019-05-21T01:50:32.817Z,0.00
2019-05-21T01:51:32.835Z,0.00
2019-05-21T01:52:32.812Z,0.00
2019-05-21T01:53:32.811Z,0.00
2019-05-21T01:54:32.808Z,0.00
2019-05-21T01:55:32.806Z,0.00
2019-05-21T01:56:32.808Z,0.00
2019-05-21T01:57:32.802Z,0.00
2019-05-21T01:58:32.799Z,0.00
2019-05-21T01:59:32.798Z,0.00
2019-05-21T02:00:32.794Z,0.00
2019-05-21T02:01:32.793Z,0.00
2019-05-21T02:02:32.790Z,0.00
2019-05-21T02:03:32.788Z,0.00
2019-05-21T02:04:32.789Z,0.00
2019-05-21T02:05:33.604Z,0.00
2019-05-21T02:06:32.782Z,0.00
2019-05-21T02:07:32.780Z,0.00
2019-05-21T02:08:32.785Z,0.00
2019-05-21T02:09:32.776Z,0.00
2019-05-21T02:10:32.772Z,0.00
2019-05-21T02:11:32.771Z,0.00
2019-05-21T02:12:32.770Z,0.00
2019-05-21T02:13:32.767Z,0.00
2019-05-21T02:14:32.765Z,0.00
2019-05-21T02:15:32.767Z,0.00
2019-05-21T02:16:32.760Z,0.00
2019-05-21T02:17:32.758Z,0.00
2019-05-21T02:18:32.753Z,0.00
2019-05-21T02:19:32.753Z,0.00
2019-05-21T02:20:32.750Z,0.00
2019-05-21T02:21:32.748Z,0.00
2019-05-21T02:22:32.746Z,0.00
2019-05-21T02:23:32.743Z,0.00
2019-05-21T02:24:32.743Z,0.00
2019-05-21T02:25:32.813Z,0.00
2019-05-21T02:26:32.738Z,0.00
2019-05-21T02:27:32.734Z,0.00
2019-05-21T02:28:32.733Z,0.00
2019-05-21T02:29:32.730Z,0.00
2019-05-21T02:30:32.731Z,0.00
2019-05-21T02:31:32.731Z,0.00
2019-05-21T02:32:32.724Z,0.00
2019-05-21T02:33:32.723Z,0.00
2019-05-21T02:34:32.724Z,0.00
2019-05-21T02:35:32.720Z,0.00
2019-05-21T02:36:32.715Z,0.00
2019-05-21T02:37:32.716Z,0.00
2019-05-21T02:38:32.711Z,0.00
2019-05-21T02:39:32.708Z,0.00
2019-05-21T02:40:32.707Z,0.00
2019-05-21T02:41:32.710Z,0.00
2019-05-21T02:42:32.702Z,0.00
2019-05-21T02:43:32.705Z,0.00
2019-05-21T02:44:32.699Z,0.00
2019-05-21T02:45:32.696Z,0.00
2019-05-21T02:46:32.693Z,0.00
2019-05-21T02:47:32.691Z,0.00
2019-05-21T02:48:32.688Z,0.00
2019-05-21T02:49:32.685Z,0.00
2019-05-21T02:50:32.683Z,0.00
2019-05-21T02:51:32.681Z,0.00
2019-05-21T02:52:32.678Z,0.00
2019-05-21T02:53:34.564Z,0.00
2019-05-21T02:54:41.156Z,0.00
2019-05-21T02:55:32.675Z,0.00
2019-05-21T02:56:32.671Z,0.00
2019-05-21T02:57:32.667Z,0.00
2019-05-21T02:58:32.665Z,0.00
2019-05-21T02:59:32.662Z,0.00
2019-05-21T03:00:32.661Z,0.00
2019-05-21T03:01:32.665Z,0.00
2019-05-21T03:02:32.655Z,0.00
2019-05-21T03:03:32.653Z,0.00
2019-05-21T03:04:32.652Z,0.00
2019-05-21T03:05:32.649Z,0.00
2019-05-21T03:06:32.646Z,0.00
2019-05-21T03:07:32.645Z,4.00
2019-05-21T03:08:32.643Z,4.00
2019-05-21T03:09:32.641Z,0.00
2019-05-21T03:10:32.637Z,4.00
2019-05-21T03:11:32.634Z,4.00
2019-05-21T03:12:32.637Z,4.00
2019-05-21T03:13:32.631Z,8.00
2019-05-21T03:14:32.631Z,4.00
2019-05-21T03:15:32.624Z,8.00
2019-05-21T03:16:32.625Z,8.00
2019-05-21T03:17:32.622Z,8.00
2019-05-21T03:18:32.619Z,8.00
2019-05-21T03:19:32.616Z,12.00
2019-05-21T03:20:32.625Z,8.00
2019-05-21T03:21:32.614Z,12.00
2019-05-21T03:22:32.610Z,16.00
2019-05-21T03:23:32.609Z,16.00
2019-05-21T03:24:32.609Z,16.00
2019-05-21T03:25:32.606Z,16.00
2019-05-21T03:26:32.602Z,20.00
2019-05-21T03:27:32.606Z,20.00
2019-05-21T03:28:32.597Z,16.00
2019-05-21T03:29:32.595Z,20.00
2019-05-21T03:30:32.593Z,16.00
2019-05-21T03:31:32.595Z,24.00
2019-05-21T03:32:32.594Z,20.00
2019-05-21T03:33:32.587Z,28.00
2019-05-21T03:34:32.586Z,28.00
2019-05-21T03:35:32.582Z,28.00
2019-05-21T03:36:34.078Z,32.00
2019-05-21T03:37:32.584Z,32.00
2019-05-21T03:38:32.574Z,36.00
2019-05-21T03:39:32.573Z,40.00
2019-05-21T03:40:32.571Z,40.00
2019-05-21T03:41:32.569Z,48.00
2019-05-21T03:42:32.565Z,44.00
2019-05-21T03:43:32.565Z,52.00
2019-05-21T03:44:32.564Z,60.00
2019-05-21T03:45:32.561Z,68.00
2019-05-21T03:46:32.558Z,64.00
2019-05-21T03:47:32.556Z,72.00
2019-05-21T03:48:32.554Z,72.00
2019-05-21T03:49:32.553Z,84.00
2019-05-21T03:50:32.550Z,76.00
2019-05-21T03:51:32.550Z,88.00
2019-05-21T03:52:32.546Z,92.00
2019-05-21T03:53:32.553Z,108.00
2019-05-21T03:54:32.542Z,112.00
2019-05-21T03:55:32.539Z,128.00
2019-05-21T03:56:32.536Z,140.00
2019-05-21T03:57:32.535Z,136.00
2019-05-21T03:58:32.533Z,128.00
2019-05-21T03:59:32.534Z,148.00
2019-05-21T04:00:32.557Z,152.00
2019-05-21T04:01:32.544Z,168.00
2019-05-21T04:02:32.522Z,180.00
2019-05-21T04:03:32.522Z,192.00
2019-05-21T04:04:32.520Z,184.00
2019-05-21T04:05:32.519Z,188.00
2019-05-21T04:06:48.877Z,180.00
2019-05-21T04:07:32.514Z,216.00
2019-05-21T04:08:32.509Z,212.00
2019-05-21T04:09:32.509Z,208.00
2019-05-21T04:10:32.507Z,236.00
2019-05-21T04:11:32.504Z,252.00
2019-05-21T04:12:32.502Z,272.00
2019-05-21T04:13:32.502Z,284.00
2019-05-21T04:14:32.495Z,328.00
2019-05-21T04:15:32.496Z,316.00
2019-05-21T04:16:32.493Z,336.00
2019-05-21T04:17:34.849Z,388.00
2019-05-21T04:18:32.488Z,324.00
2019-05-21T04:19:32.490Z,348.00
2019-05-21T04:20:32.487Z,344.00
2019-05-21T04:21:32.483Z,344.00
2019-05-21T04:22:32.482Z,416.00
2019-05-21T04:23:32.477Z,356.00
2019-05-21T04:24:32.474Z,364.00
2019-05-21T04:25:32.506Z,400.00
2019-05-21T04:26:32.470Z,440.00
2019-05-21T04:27:32.468Z,464.00
2019-05-21T04:28:32.471Z,464.00
2019-05-21T04:29:32.472Z,480.00
2019-05-21T04:30:32.490Z,488.00
2019-05-21T04:31:32.473Z,532.00
2019-05-21T04:32:32.470Z,536.00
2019-05-21T04:33:32.456Z,540.00
2019-05-21T04:34:32.453Z,504.00
2019-05-21T04:35:32.450Z,552.00
2019-05-21T04:36:32.456Z,612.00
2019-05-21T04:37:32.466Z,584.00
2019-05-21T04:38:32.443Z,504.00
2019-05-21T04:39:32.458Z,504.00
2019-05-21T04:40:32.444Z,708.00
2019-05-21T04:41:32.437Z,716.00
2019-05-21T04:42:32.438Z,600.00
2019-05-21T04:43:32.439Z,628.00
2019-05-21T04:44:32.434Z,548.00
2019-05-21T04:45:32.432Z,532.00
2019-05-21T04:46:32.438Z,460.00
2019-05-21T04:47:32.424Z,504.00
2019-05-21T04:48:32.426Z,492.00
2019-05-21T04:49:32.419Z,644.00
2019-05-21T04:50:32.422Z,620.00
2019-05-21T04:51:32.439Z,660.00
2019-05-21T04:52:32.415Z,704.00
2019-05-21T04:53:32.412Z,668.00
2019-05-21T04:54:32.409Z,716.00
2019-05-21T04:55:32.405Z,676.00
2019-05-21T04:56:32.405Z,692.00
2019-05-21T04:57:32.404Z,848.00
2019-05-21T04:58:32.398Z,888.00
2019-05-21T04:59:32.396Z,916.00
2019-05-21T05:00:32.400Z,896.00
2019-05-21T05:01:32.399Z,940.00
2019-05-21T05:02:32.391Z,1260.00
2019-05-21T05:03:32.391Z,900.00
2019-05-21T05:04:32.385Z,1064.00
2019-05-21T05:05:32.384Z,1084.00
2019-05-21T05:06:32.385Z,1180.00
2019-05-21T05:07:32.382Z,1156.00
2019-05-21T05:08:32.377Z,1060.00
2019-05-21T05:09:32.375Z,1208.00
2019-05-21T05:10:32.386Z,1220.00
2019-05-21T05:11:32.370Z,1208.00
2019-05-21T05:12:32.371Z,1184.00
2019-05-21T05:13:32.366Z,1128.00
2019-05-21T05:14:32.369Z,1116.00
2019-05-21T05:15:32.361Z,1136.00
2019-05-21T05:16:32.361Z,1064.00
2019-05-21T05:17:32.366Z,1056.00
2019-05-21T05:18:32.354Z,1076.00
2019-05-21T05:19:32.358Z,1164.00
2019-05-21T05:20:32.350Z,1244.00
2019-05-21T05:21:32.358Z,1084.00
2019-05-21T05:22:32.346Z,1044.00
2019-05-21T05:23:32.343Z,1020.00
2019-05-21T05:24:32.341Z,1028.00
2019-05-21T05:25:32.341Z,1212.00
2019-05-21T05:26:32.337Z,1076.00
2019-05-21T05:27:32.335Z,1064.00
2019-05-21T05:28:32.334Z,1164.00
2019-05-21T05:29:32.332Z,1164.00
2019-05-21T05:30:32.335Z,1120.00
2019-05-21T05:31:32.326Z,1128.00
2019-05-21T05:32:32.324Z,1180.00
2019-05-21T05:33:32.321Z,1184.00
2019-05-21T05:34:32.320Z,1184.00
2019-05-21T05:35:32.319Z,1360.00
2019-05-21T05:36:32.316Z,1308.00
2019-05-21T05:37:43.327Z,1192.00
2019-05-21T05:38:32.312Z,1528.00
2019-05-21T05:39:32.308Z,1164.00
2019-05-21T05:40:32.308Z,1192.00
2019-05-21T05:41:32.306Z,1120.00
2019-05-21T05:42:32.303Z,1156.00
2019-05-21T05:43:32.300Z,1156.00
2019-05-21T05:44:32.299Z,1280.00
2019-05-21T05:45:32.297Z,1264.00
2019-05-21T05:46:32.294Z,1244.00
2019-05-21T05:47:32.292Z,1308.00
2019-05-21T05:48:32.292Z,1236.00
2019-05-21T05:49:32.295Z,1448.00
2019-05-21T05:50:32.286Z,1504.00
2019-05-21T05:51:32.283Z,1520.00
2019-05-21T05:52:32.282Z,1404.00
2019-05-21T05:53:32.279Z,1576.00
2019-05-21T05:54:32.279Z,1240.00
2019-05-21T05:55:32.275Z,1456.00
2019-05-21T05:56:32.322Z,1564.00
2019-05-21T05:57:32.272Z,1516.00
2019-05-21T05:58:32.269Z,1816.00
2019-05-21T05:59:32.267Z,1556.00
2019-05-21T06:00:32.266Z,1308.00
2019-05-21T06:01:32.263Z,1296.00
2019-05-21T06:02:32.263Z,1672.00
2019-05-21T06:03:32.258Z,1512.00
2019-05-21T06:04:32.256Z,2120.00
2019-05-21T06:05:32.254Z,1992.00
2019-05-21T06:06:32.250Z,2208.00
2019-05-21T06:07:32.249Z,2100.00
2019-05-21T06:08:32.247Z,2256.00
2019-05-21T06:09:32.246Z,1856.00
2019-05-21T06:10:32.245Z,2792.00
2019-05-21T06:11:32.242Z,2124.00
2019-05-21T06:12:32.238Z,2640.00
2019-05-21T06:13:32.237Z,2860.00
2019-05-21T06:14:32.234Z,3424.00
2019-05-21T06:15:32.231Z,3424.00
2019-05-21T06:16:32.233Z,3096.00
2019-05-21T06:17:32.228Z,3408.00
2019-05-21T06:18:35.384Z,2520.00
2019-05-21T06:19:32.225Z,3188.00
2019-05-21T06:20:32.223Z,3076.00
2019-05-21T06:21:32.221Z,3044.00
2019-05-21T06:22:32.221Z,2796.00
2019-05-21T06:23:32.219Z,3156.00
2019-05-21T06:24:32.214Z,2796.00
2019-05-21T06:25:32.216Z,3028.00
2019-05-21T06:26:32.209Z,5328.00
2019-05-21T06:27:32.209Z,3464.00
2019-05-21T06:28:32.206Z,2812.00
2019-05-21T06:29:32.205Z,3540.00
2019-05-21T06:30:32.201Z,3052.00
2019-05-21T06:31:32.201Z,3424.00
2019-05-21T06:32:32.200Z,3572.00
2019-05-21T06:33:32.196Z,3688.00
2019-05-21T06:34:32.194Z,3024.00
2019-05-21T06:35:32.194Z,2360.00
2019-05-21T06:36:32.191Z,2340.00
2019-05-21T06:37:32.191Z,2864.00
2019-05-21T06:38:32.186Z,3520.00
2019-05-21T06:39:32.191Z,2380.00
2019-05-21T06:40:32.186Z,1940.00
2019-05-21T06:41:32.201Z,2040.00
2019-05-21T06:42:32.179Z,2144.00
2019-05-21T06:43:32.179Z,2880.00
2019-05-21T06:44:32.177Z,3192.00
2019-05-21T06:45:32.175Z,1904.00
2019-05-21T06:46:32.172Z,1608.00
2019-05-21T06:47:32.170Z,1404.00
2019-05-21T06:48:32.170Z,1492.00
2019-05-21T06:49:32.177Z,1476.00
2019-05-21T06:50:32.168Z,2332.00
2019-05-21T06:51:32.292Z,2168.00
2019-05-21T06:52:32.161Z,1936.00
2019-05-21T06:53:32.161Z,1872.00
2019-05-21T06:54:32.157Z,1856.00
2019-05-21T06:55:32.163Z,2388.00
2019-05-21T06:56:32.156Z,2760.00
2019-05-21T06:57:32.163Z,2284.00
2019-05-21T06:58:32.156Z,2548.00
2019-05-21T06:59:32.147Z,2968.00
2019-05-21T07:00:32.147Z,2656.00
2019-05-21T07:01:32.146Z,2456.00
2019-05-21T07:02:32.142Z,2408.00
2019-05-21T07:03:32.142Z,2280.00
2019-05-21T07:04:32.140Z,2384.00
2019-05-21T07:05:32.139Z,2412.00
2019-05-21T07:06:32.136Z,2452.00
2019-05-21T07:07:32.135Z,2580.00
2019-05-21T07:08:35.054Z,2904.00
2019-05-21T07:09:32.131Z,3868.00
2019-05-21T07:10:32.129Z,3616.00
2019-05-21T07:11:32.125Z,2564.00
2019-05-21T07:12:32.124Z,2940.00
2019-05-21T07:13:32.173Z,3556.00
2019-05-21T07:14:32.119Z,3220.00
2019-05-21T07:15:32.117Z,3132.00
2019-05-21T07:16:32.117Z,3328.00
2019-05-21T07:17:32.115Z,3404.00
2019-05-21T07:18:32.113Z,3628.00
2019-05-21T07:19:32.115Z,3020.00
2019-05-21T07:20:32.110Z,3072.00
2019-05-21T07:21:32.111Z,3340.00
2019-05-21T07:22:32.117Z,4116.00
2019-05-21T07:23:32.104Z,3980.00
2019-05-21T07:24:32.102Z,4236.00
2019-05-21T07:25:32.101Z,3968.00
2019-05-21T07:26:32.109Z,3096.00
2019-05-21T07:27:32.096Z,3424.00
2019-05-21T07:28:32.173Z,3464.00
2019-05-21T07:29:32.092Z,2980.00
2019-05-21T07:30:32.091Z,2984.00
2019-05-21T07:31:32.088Z,3388.00
2019-05-21T07:32:32.088Z,3164.00
2019-05-21T07:33:32.086Z,2976.00
2019-05-21T07:34:32.087Z,3312.00
2019-05-21T07:35:32.083Z,4468.00
2019-05-21T07:36:32.081Z,4152.00
2019-05-21T07:37:32.078Z,3388.00
2019-05-21T07:38:32.079Z,3568.00
2019-05-21T07:39:32.075Z,3144.00
2019-05-21T07:40:32.073Z,3388.00
2019-05-21T07:41:32.073Z,4448.00
2019-05-21T07:42:32.071Z,3412.00
2019-05-21T07:43:32.074Z,3972.00
2019-05-21T07:44:32.068Z,4200.00
2019-05-21T07:45:32.066Z,3564.00
2019-05-21T07:46:32.065Z,3380.00
2019-05-21T07:47:32.062Z,3968.00
2019-05-21T07:48:32.061Z,4256.00
2019-05-21T07:49:32.060Z,5120.00
2019-05-21T07:50:32.057Z,3700.00
2019-05-21T07:51:32.057Z,3384.00
2019-05-21T07:52:32.055Z,4080.00
2019-05-21T07:53:32.071Z,4372.00
2019-05-21T07:54:32.052Z,3924.00
2019-05-21T07:55:32.049Z,3860.00
2019-05-21T07:56:32.049Z,4744.00
2019-05-21T07:57:32.062Z,4988.00
2019-05-21T07:58:32.050Z,4364.00
2019-05-21T07:59:32.043Z,4220.00
2019-05-21T08:00:32.048Z,4160.00
2019-05-21T08:01:32.043Z,3684.00
2019-05-21T08:02:32.039Z,3876.00
2019-05-21T08:03:32.037Z,5208.00
2019-05-21T08:04:32.035Z,5140.00
2019-05-21T08:05:32.037Z,4420.00
2019-05-21T08:06:32.037Z,5056.00
2019-05-21T08:07:32.032Z,4396.00
2019-05-21T08:08:32.031Z,3812.00
2019-05-21T08:09:32.030Z,3740.00
2019-05-21T08:10:32.030Z,3632.00
2019-05-21T08:11:32.025Z,3940.00
2019-05-21T08:12:39.078Z,4376.00
2019-05-21T08:13:32.024Z,4204.00
2019-05-21T08:14:32.022Z,3240.00
2019-05-21T08:15:32.021Z,2936.00
2019-05-21T08:16:32.020Z,3112.00
2019-05-21T08:17:32.022Z,2600.00
2019-05-21T08:18:32.015Z,3536.00
2019-05-21T08:19:32.016Z,3100.00
2019-05-21T08:20:32.014Z,2600.00
2019-05-21T08:21:32.014Z,2684.00
2019-05-21T08:22:32.010Z,3464.00
2019-05-21T08:23:32.009Z,2728.00
2019-05-21T08:24:32.008Z,2908.00
2019-05-21T08:25:32.008Z,3196.00
2019-05-21T08:26:32.006Z,3116.00
2019-05-21T08:27:32.011Z,3224.00
2019-05-21T08:28:32.002Z,2832.00
2019-05-21T08:29:32.001Z,2580.00
2019-05-21T08:30:31.997Z,3056.00
2019-05-21T08:31:31.997Z,3004.00
2019-05-21T08:32:31.996Z,2900.00
2019-05-21T08:33:31.994Z,2636.00
2019-05-21T08:34:31.997Z,2448.00
2019-05-21T08:35:31.991Z,2516.00
2019-05-21T08:36:31.989Z,2744.00
2019-05-21T08:37:31.988Z,2576.00
2019-05-21T08:38:31.986Z,2696.00
2019-05-21T08:39:31.994Z,2896.00
2019-05-21T08:40:31.984Z,3012.00
2019-05-21T08:41:31.983Z,2988.00
2019-05-21T08:42:31.979Z,3344.00
2019-05-21T08:43:31.978Z,2804.00
2019-05-21T08:44:31.980Z,3284.00
2019-05-21T08:45:31.978Z,4216.00
2019-05-21T08:46:31.982Z,3772.00
2019-05-21T08:47:31.971Z,3512.00
2019-05-21T08:48:31.970Z,3092.00
2019-05-21T08:49:31.969Z,3376.00
2019-05-21T08:50:31.966Z,3708.00
2019-05-21T08:51:31.964Z,3648.00
2019-05-21T08:52:31.971Z,3724.00
2019-05-21T08:53:31.963Z,3512.00
2019-05-21T08:54:31.959Z,2992.00
2019-05-21T08:55:31.958Z,2720.00
2019-05-21T08:56:32.015Z,3368.00
2019-05-21T08:57:31.954Z,3484.00
2019-05-21T08:58:31.951Z,3576.00
2019-05-21T08:59:31.955Z,3792.00
2019-05-21T09:00:31.960Z,3316.00
2019-05-21T09:01:31.947Z,3360.00
2019-05-21T09:02:31.950Z,3404.00
2019-05-21T09:03:31.945Z,3336.00
2019-05-21T09:04:45.982Z,3660.00
2019-05-21T09:05:31.939Z,4000.00
2019-05-21T09:06:31.937Z,3824.00
2019-05-21T09:07:31.938Z,3304.00
2019-05-21T09:08:31.934Z,3648.00
2019-05-21T09:09:48.537Z,3640.00
2019-05-21T09:10:31.929Z,3012.00
2019-05-21T09:11:31.929Z,3024.00
2019-05-21T09:12:31.929Z,3668.00
2019-05-21T09:13:31.926Z,4504.00
2019-05-21T09:14:31.923Z,4060.00
2019-05-21T09:15:31.922Z,3080.00
2019-05-21T09:16:31.921Z,2800.00
2019-05-21T09:17:31.918Z,3536.00
2019-05-21T09:18:31.917Z,3500.00
2019-05-21T09:19:36.094Z,3216.00
2019-05-21T09:20:31.914Z,3300.00
2019-05-21T09:21:31.913Z,3736.00
2019-05-21T09:22:31.910Z,3220.00
2019-05-21T09:23:31.917Z,3092.00
2019-05-21T09:24:31.906Z,3164.00
2019-05-21T09:25:31.903Z,3372.00
2019-05-21T09:26:31.902Z,3428.00
2019-05-21T09:27:31.906Z,3152.00
2019-05-21T09:28:31.899Z,2864.00
2019-05-21T09:29:31.897Z,3356.00
2019-05-21T09:30:31.899Z,2672.00
2019-05-21T09:31:31.897Z,2624.00
2019-05-21T09:32:31.894Z,2300.00
2019-05-21T09:33:31.889Z,2392.00
2019-05-21T09:34:47.384Z,2772.00
2019-05-21T09:35:31.886Z,2520.00
2019-05-21T09:36:31.885Z,2444.00
2019-05-21T09:37:31.882Z,2792.00
2019-05-21T09:38:31.881Z,3128.00
2019-05-21T09:39:31.878Z,2892.00
2019-05-21T09:40:31.876Z,2992.00
2019-05-21T09:41:31.875Z,2796.00
2019-05-21T09:42:31.872Z,2568.00
2019-05-21T09:43:31.870Z,2640.00
2019-05-21T09:44:31.869Z,3048.00
2019-05-21T09:45:31.867Z,3136.00
2019-05-21T09:46:31.864Z,3248.00
2019-05-21T09:47:31.862Z,3056.00
2019-05-21T09:48:31.861Z,3448.00
2019-05-21T09:49:31.881Z,3376.00
2019-05-21T09:50:31.861Z,3016.00
2019-05-21T09:51:31.855Z,3080.00
2019-05-21T09:52:31.855Z,2980.00
2019-05-21T09:53:31.851Z,3324.00
2019-05-21T09:54:31.849Z,3544.00
2019-05-21T09:55:33.731Z,3608.00
2019-05-21T09:56:31.845Z,3528.00
2019-05-21T09:57:31.845Z,3584.00
2019-05-21T09:58:31.841Z,3788.00
2019-05-21T09:59:31.839Z,3524.00
2019-05-21T10:00:31.836Z,3416.00
2019-05-21T10:01:31.835Z,3056.00
2019-05-21T10:02:31.835Z,3216.00
2019-05-21T10:03:31.831Z,3244.00
2019-05-21T10:04:31.829Z,3780.00
2019-05-21T10:05:31.834Z,4484.00
2019-05-21T10:06:31.827Z,4304.00
2019-05-21T10:07:39.993Z,5004.00
2019-05-21T10:08:31.822Z,3676.00
2019-05-21T10:09:31.820Z,3384.00
2019-05-21T10:10:31.817Z,3676.00
2019-05-21T10:11:31.816Z,3832.00
2019-05-21T10:12:31.814Z,3852.00
2019-05-21T10:13:31.818Z,4296.00
2019-05-21T10:14:34.095Z,4812.00
2019-05-21T10:15:31.808Z,4796.00
2019-05-21T10:16:31.806Z,4584.00
2019-05-21T10:17:31.805Z,4304.00
2019-05-21T10:18:31.802Z,3908.00
2019-05-21T10:19:31.803Z,3624.00
2019-05-21T10:20:31.799Z,3740.00
2019-05-21T10:21:31.802Z,5080.00
2019-05-21T10:22:31.805Z,5948.00
2019-05-21T10:23:31.795Z,6696.00
2019-05-21T10:24:31.791Z,5080.00
2019-05-21T10:25:31.790Z,4564.00
2019-05-21T10:26:31.790Z,4628.00
2019-05-21T10:27:31.788Z,3560.00
2019-05-21T10:28:31.785Z,3096.00
2019-05-21T10:29:31.783Z,3092.00
2019-05-21T10:30:31.781Z,3840.00
2019-05-21T10:31:31.780Z,5072.00
2019-05-21T10:32:31.796Z,4636.00
2019-05-21T10:33:31.778Z,4140.00
2019-05-21T10:34:31.780Z,4876.00
2019-05-21T10:35:31.774Z,5528.00
2019-05-21T10:36:31.773Z,6012.00
2019-05-21T10:37:31.769Z,4868.00
2019-05-21T10:38:31.769Z,4072.00
2019-05-21T10:39:31.780Z,4464.00
2019-05-21T10:40:31.765Z,5124.00
2019-05-21T10:41:31.765Z,4008.00
2019-05-21T10:42:31.805Z,3572.00
2019-05-21T10:43:31.760Z,5860.00
2019-05-21T10:44:31.759Z,4460.00
2019-05-21T10:45:31.758Z,5108.00
2019-05-21T10:46:31.760Z,4484.00
2019-05-21T10:47:31.753Z,3724.00
2019-05-21T10:48:31.757Z,4012.00
2019-05-21T10:49:31.751Z,3540.00
2019-05-21T10:50:31.749Z,4464.00
2019-05-21T10:51:31.748Z,3276.00
2019-05-21T10:52:31.747Z,3108.00
2019-05-21T10:53:31.746Z,3696.00
2019-05-21T10:54:31.744Z,4128.00
2019-05-21T10:55:31.742Z,3748.00
2019-05-21T10:56:46.653Z,3312.00
2019-05-21T10:57:31.744Z,3672.00
2019-05-21T10:58:31.738Z,6004.00
2019-05-21T10:59:31.735Z,4676.00
2019-05-21T11:00:31.735Z,4648.00
2019-05-21T11:01:31.737Z,4372.00
2019-05-21T11:02:31.736Z,4940.00
2019-05-21T11:03:31.731Z,4776.00
2019-05-21T11:04:31.729Z,4896.00
2019-05-21T11:05:31.729Z,4508.00
2019-05-21T11:06:31.729Z,6300.00
2019-05-21T11:07:31.725Z,5320.00
2019-05-21T11:08:31.723Z,5664.00
2019-05-21T11:09:31.724Z,5040.00
2019-05-21T11:10:31.721Z,4996.00
2019-05-21T11:11:31.720Z,5324.00
2019-05-21T11:12:31.763Z,4472.00
2019-05-21T11:13:31.724Z,3588.00
2019-05-21T11:14:31.717Z,4236.00
2019-05-21T11:15:31.736Z,6160.00
2019-05-21T11:16:31.718Z,6684.00
2019-05-21T11:17:46.821Z,5932.00
2019-05-21T11:18:31.717Z,4380.00
2019-05-21T11:19:31.715Z,3088.00
2019-05-21T11:20:31.716Z,3484.00
2019-05-21T11:21:31.717Z,5072.00
2019-05-21T11:22:31.736Z,5152.00
2019-05-21T11:23:31.707Z,3960.00
2019-05-21T11:24:31.704Z,3260.00
2019-05-21T11:25:31.706Z,3388.00
2019-05-21T11:26:31.702Z,4416.00
2019-05-21T11:27:31.705Z,4160.00
2019-05-21T11:28:31.701Z,5904.00
2019-05-21T11:29:31.700Z,8036.00
2019-05-21T11:30:31.764Z,6188.00
2019-05-21T11:31:31.698Z,5960.00
2019-05-21T11:32:31.700Z,6180.00
2019-05-21T11:33:31.696Z,4800.00
2019-05-21T11:34:31.694Z,5160.00
2019-05-21T11:35:31.693Z,5916.00
2019-05-21T11:36:31.691Z,5104.00
2019-05-21T11:37:31.689Z,6264.00
2019-05-21T11:38:39.376Z,6080.00
2019-05-21T11:39:31.688Z,5276.00
2019-05-21T11:40:31.693Z,4176.00
2019-05-21T11:41:31.687Z,3984.00
2019-05-21T11:42:31.685Z,4776.00
2019-05-21T11:43:31.685Z,3700.00
2019-05-21T11:44:31.684Z,3548.00
2019-05-21T11:45:32.950Z,3568.00
2019-05-21T11:46:31.680Z,4176.00
2019-05-21T11:47:31.684Z,4936.00
2019-05-21T11:48:31.679Z,4716.00
2019-05-21T11:49:31.679Z,4572.00
2019-05-21T11:50:31.677Z,4352.00
2019-05-21T11:51:31.676Z,3864.00
2019-05-21T11:52:31.676Z,4648.00
2019-05-21T11:53:32.117Z,5364.00
2019-05-21T11:54:31.673Z,5344.00
2019-05-21T11:55:31.673Z,3676.00
2019-05-21T11:56:31.673Z,4320.00
2019-05-21T11:57:31.673Z,5660.00
2019-05-21T11:58:31.695Z,5768.00
2019-05-21T11:59:31.667Z,6328.00
2019-05-21T12:00:31.668Z,6948.00
2019-05-21T12:01:31.668Z,5220.00
2019-05-21T12:02:31.672Z,5176.00
2019-05-21T12:03:31.667Z,4660.00
2019-05-21T12:04:31.667Z,4612.00
2019-05-21T12:05:31.666Z,5036.00
2019-05-21T12:06:31.662Z,5212.00
2019-05-21T12:07:31.661Z,5464.00
2019-05-21T12:08:31.663Z,5500.00
2019-05-21T12:09:31.660Z,4848.00
2019-05-21T12:10:31.659Z,6428.00
2019-05-21T12:11:31.658Z,6964.00
2019-05-21T12:12:31.659Z,5216.00
2019-05-21T12:13:31.661Z,4300.00
2019-05-21T12:14:31.658Z,5668.00
2019-05-21T12:15:31.656Z,7724.00
2019-05-21T12:16:31.670Z,8192.00
2019-05-21T12:17:31.656Z,7864.00
2019-05-21T12:18:31.654Z,6708.00
2019-05-21T12:19:31.653Z,5456.00
2019-05-21T12:20:36.740Z,5592.00
2019-05-21T12:21:31.652Z,5920.00
2019-05-21T12:22:31.650Z,5620.00
2019-05-21T12:23:31.651Z,6056.00
2019-05-21T12:24:31.650Z,6452.00
2019-05-21T12:25:31.649Z,6396.00
2019-05-21T12:26:31.648Z,6628.00
2019-05-21T12:27:31.647Z,7044.00
2019-05-21T12:28:31.650Z,6896.00